• Join FlightAware (Why Join?)
  • Login
  • US Flag 
11:42AM EDT


 

Airport Tracker/Info


-or-


 

Live Flight TrackerFlight Track Log ✈ JZA8279 ✈ 28-Apr-2013 ✈ CYPR - CYVR

Flight Track Log - Related Links

Times and Time Zones

All times are in EDT time to prevent confusion due to time zone crossing. See the JZA8279 flight status page for this flight to view local times or setup timezone preferences in your user account.

Time Position Orientation Groundspeed Altitude Reporting Facility
EDT Latitude Longitude Course Direction KTS MPH feet Rate Location/Type
01:28PM 54.2667 -130.4667 136° Southeast 250 288 1,000  Level Vancouver Center
01:29PM 54.2167 -130.4500 169° South 140 161 2,600 1,680 Climbing Vancouver Center
01:30PM 54.1833 -130.3833 130° Southeast 160 184 4,400 1,860 Climbing Vancouver Center
01:31PM 54.1500 -130.3500 150° Southeast 160 184 6,400 1,920 Climbing Vancouver Center
01:32PM 54.1333 -130.3000 120° Southeast 160 184 8,300 1,800 Climbing Vancouver Center
01:33PM 53.9624 -129.9063 136° Southeast  Level FlightAware Approximate
01:33PM 54.1000 -130.2333 130° Southeast 160 184 10,000  Level Vancouver Center
01:34PM 54.0667 -130.1667 130° Southeast 170 196 11,300 1,200 Climbing Vancouver Center
01:35PM 54.0167 -130.1000 142° Southeast 190 219 12,500 1,140 Climbing Vancouver Center
01:36PM 53.9833 -130.0500 139° Southeast 180 207 13,600 1,020 Climbing Vancouver Center
01:37PM 53.9500 -129.9833 130° Southeast 190 219 14,600 900 Climbing Vancouver Center
01:38PM 53.9167 -129.9167 130° Southeast 210 242 15,500 900 Climbing Vancouver Center
01:39PM 53.8667 -129.8333 135° Southeast 210 242 16,500 900 Climbing Vancouver Center
01:40PM 53.8167 -129.7667 142° Southeast 210 242 17,400 900 Climbing Vancouver Center
01:41PM 53.7833 -129.7000 130° Southeast 220 253 18,300 840 Climbing Vancouver Center
01:42PM 53.7333 -129.6167 135° Southeast 230 265 19,100 900 Climbing Vancouver Center
01:43PM 53.7000 -129.5500 130° Southeast 220 253 20,100 900 Climbing Vancouver Center
01:44PM 53.6500 -129.4667 135° Southeast 220 253 20,900 780 Climbing Vancouver Center
01:45PM 53.6000 -129.4000 142° Southeast 220 253 21,700 720 Climbing Vancouver Center
01:46PM 53.5667 -129.3333 130° Southeast 220 253 22,400 780 Climbing Vancouver Center
01:47PM 53.5167 -129.2500 135° Southeast 220 253 23,300 720 Climbing Vancouver Center
01:48PM 53.4833 -129.1833 130° Southeast 220 253 23,900 540 Climbing Vancouver Center
01:49PM 53.4333 -129.1000 135° Southeast 230 265 24,400 480 Climbing Vancouver Center
01:50PM 53.3833 -129.0333 141° Southeast 230 265 24,900 300 Climbing Vancouver Center
01:51PM 53.3333 -128.9500 135° Southeast 240 276 25,000  Climbing Vancouver Center
01:52PM 53.2833 -128.8500 130° Southeast 260 299 25,000  Level Vancouver Center
01:53PM 53.2333 -128.7667 135° Southeast 270 311 25,000  Level Vancouver Center
01:54PM 53.1833 -128.6667 130° Southeast 290 334 25,000  Level Vancouver Center
01:55PM 53.1167 -128.5833 143° Southeast 300 345 25,000  Level Vancouver Center
01:56PM 53.0500 -128.5000 143° Southeast 300 345 25,000  Level Vancouver Center
01:57PM 52.9833 -128.4000 138° Southeast 300 345 25,000  Level Vancouver Center
01:58PM 52.9333 -128.2833 125° Southeast 310 357 25,000  Level Vancouver Center
01:59PM 52.8833 -128.2000 135° Southeast 300 345 25,000  Level Vancouver Center
02:00PM 52.8167 -128.1000 138° Southeast 300 345 25,000  Level Vancouver Center
02:01PM 52.7500 -127.9833 133° Southeast 300 345 25,000  Level Vancouver Center
02:02PM 52.6833 -127.9000 143° Southeast 300 345 25,000  Level Vancouver Center
02:03PM 52.6333 -127.8167 135° Southeast 300 345 25,000  Level Vancouver Center
02:04PM 52.5833 -127.7333 135° Southeast 300 345 25,000  Level Vancouver Center
02:05PM 52.5167 -127.6167 133° Southeast 300 345 25,000  Level Vancouver Center
02:06PM 52.4500 -127.5167 138° Southeast 300 345 25,000  Level Vancouver Center
02:07PM 52.3833 -127.4333 143° Southeast 300 345 25,000  Level Vancouver Center
02:08PM 52.3333 -127.3167 125° Southeast 300 345 25,000  Level Vancouver Center
02:09PM 52.2667 -127.2333 143° Southeast 310 357 25,000  Level Vancouver Center
02:10PM 52.2000 -127.1500 143° Southeast 300 345 25,000  Level Vancouver Center
02:11PM 52.1500 -127.0667 134° Southeast 310 357 25,000  Level Vancouver Center
02:12PM 52.0833 -126.9500 133° Southeast 310 357 25,000  Level Vancouver Center
02:13PM 52.0167 -126.8667 142° Southeast 310 357 25,000  Level Vancouver Center
02:14PM 51.9500 -126.7833 142° Southeast 300 345 25,000  Level Vancouver Center
02:15PM 51.9000 -126.6667 125° Southeast 310 357 25,000  Level Vancouver Center
02:16PM 51.8333 -126.5833 142° Southeast 310 357 25,000  Level Vancouver Center
02:17PM 51.7667 -126.4667 133° Southeast 310 357 25,000  Level Vancouver Center
02:18PM 51.7000 -126.3833 142° Southeast 310 357 25,000  Level Vancouver Center
02:19PM 51.6333 -126.3000 142° Southeast 310 357 25,000  Level Vancouver Center
02:20PM 51.5667 -126.1833 133° Southeast 310 357 25,000  Level Vancouver Center
02:21PM 51.5000 -126.1000 142° Southeast 320 368 25,000  Level Vancouver Center
02:22PM 51.4333 -126.0000 137° Southeast 320 368 25,000  Level Vancouver Center
02:23PM 51.3667 -125.9167 142° Southeast 310 357 25,000  Level Vancouver Center
02:24PM 51.3000 -125.8333 142° Southeast 320 368 25,000  Level Vancouver Center
02:25PM 51.2500 -125.7167 124° Southeast 320 368 25,000  Level Vancouver Center
02:26PM 51.1833 -125.6333 142° Southeast 310 357 25,000  Level Vancouver Center
02:27PM 51.1167 -125.5333 137° Southeast 320 368 25,000  Level Vancouver Center
02:28PM 51.0500 -125.4500 142° Southeast 320 368 25,000  Level Vancouver Center
02:29PM 50.9833 -125.3333 132° Southeast 320 368 25,000  Level Vancouver Center
02:30PM 50.9167 -125.2500 142° Southeast 320 368 25,000  Level Vancouver Center
02:31PM 50.8500 -125.1500 137° Southeast 320 368 25,000  Level Vancouver Center
02:32PM 50.7833 -125.0667 142° Southeast 320 368 25,000  Level Vancouver Center
02:33PM 50.7167 -124.9833 142° Southeast 320 368 25,000  Level Vancouver Center
02:34PM 50.6500 -124.8833 136° Southeast 320 368 25,000  Level Vancouver Center
02:35PM 50.5833 -124.8000 142° Southeast 320 368 25,000 -300 Level Vancouver Center
02:36PM 50.5000 -124.6833 138° Southeast 330 380 24,500 -900 Descending Vancouver Center
02:37PM 50.4333 -124.5833 136° Southeast 350 403 23,200 -1,320 Descending Vancouver Center
02:38PM 50.3667 -124.4833 136° Southeast 360 414 21,900 -1,320 Descending Vancouver Center
02:39PM 50.2833 -124.4000 147° Southeast 350 403 20,600 -1,260 Descending Vancouver Center
02:40PM 50.2167 -124.3000 136° Southeast 330 380 19,400 -1,200 Descending Vancouver Center
02:41PM 50.1500 -124.1833 132° Southeast 320 368 18,200 -1,020 Descending Vancouver Center
02:42PM 50.1000 -124.0833 128° Southeast 330 380 17,400 -1,200 Descending Vancouver Center
02:43PM 50.0500 -123.9500 120° Southeast 340 391 15,800 -1,440 Descending Vancouver Center
02:44PM 49.9667 -123.8833 153° Southeast 320 368 14,600 -1,140 Descending Vancouver Center
02:45PM 49.9000 -123.8167 147° Southeast 310 357 13,600 -1,140 Descending Vancouver Center
02:46PM 49.8167 -123.7500 153° Southeast 300 345 12,400 -1,140 Descending Vancouver Center
02:47PM 49.7500 -123.7000 154° Southeast 290 334 11,400 -1,020 Descending Vancouver Center
02:48PM 49.6833 -123.6500 154° Southeast 280 322 10,400 -720 Descending Vancouver Center
02:49PM 49.6167 -123.6000 154° Southeast 270 311 10,000 -240 Descending Vancouver Center
02:50PM 49.5500 -123.5500 154° Southeast 260 299 10,000  Level Vancouver Center
02:51PM 49.4833 -123.4833 147° Southeast 260 299 10,000  Level Vancouver Center
02:52PM 49.4333 -123.4333 147° Southeast 260 299 10,000  Level Vancouver Center
02:53PM 49.3667 -123.3833 154° Southeast 260 299 10,000 -540 Level Vancouver Center
02:54PM 49.3000 -123.3333 154° Southeast 260 299 9,000 -1,620 Descending Vancouver Center
02:55PM 49.2500 -123.2333 127° Southeast 270 311 6,800 -1,620 Descending Vancouver Center
02:56PM 49.2500 -123.1667 90° East 240 276 5,800 -1,320 Descending Vancouver Center
02:57PM 49.2333 -123.0500 102° East 220 253 4,200 -960 Descending Vancouver Center
02:58PM 49.2333 -122.9500 90° East 220 253 3,900 -720 Descending Vancouver Center
02:59PM 49.2000 -122.9000 136° Southeast 210 242 2,800 -900 Descending Vancouver Center
03:00PM 49.1667 -122.9500 224° Southwest 190 219 2,200 -600 Descending Vancouver Center
03:01PM 49.1667 -123.0333 270° West 170 196 1,600 -720 Descending Vancouver Center
03:02PM 49.1667 -123.1167 270° West 150 173 800 -780 Descending Vancouver Center
03:03PM 49.1833 -123.1667 297° West 120 138 100 -720 Descending Vancouver Center